Weather reports worldwide

Advertisment
Pian Rosa, Italy (16052): temperature & dewpoint: 15.09.2018 01:00:00 - 21.09.2018 01:00:00 (CEST)Pian Rosa, Italy (16052): wind speed: 15.09.2018 01:00:00 - 21.09.2018 01:00:00 (CEST)Pian Rosa, Italy (16052): wind direction: 15.09.2018 01:00:00 - 21.09.2018 01:00:00 (CEST)Pian Rosa, Italy (16052): visibility: 15.09.2018 01:00:00 - 21.09.2018 01:00:00 (CEST)Pian Rosa, Italy (16052): sunshine duration: 15.09.2018 01:00:00 - 21.09.2018 01:00:00 (CEST)
Date & Time tt [°C] td [°C] ff [km/h] ff [kn] dd vv [km] sd [min]
21.09.2018 01:00:00 2,6 -0,2 9 5 S 10 -
21.09.2018 00:00:00 3,0 -0,1 9 5 SSW 10 -
20.09.2018 23:00:00 3,2 0,2 0 0 N 10 -
20.09.2018 22:00:00 3,6 0,5 4 2 - 10 -
20.09.2018 21:00:00 4,6 0,4 0 0 N 10 -
20.09.2018 20:00:00 5,0 0,6 0 0 N 10 12
20.09.2018 19:00:00 5,4 -0,2 5 3 SSW 3,0 12
20.09.2018 18:00:00 6,4 2,3 5 3 SSW 1,0 12
20.09.2018 17:00:00 5,8 1,7 0 0 N 10 60
20.09.2018 16:00:00 5,8 1,5 4 2 SSW 20 54
20.09.2018 15:00:00 5,2 1,0 5 3 S 20 48
20.09.2018 14:00:00 5,2 0,2 5 3 - 20 36
20.09.2018 13:00:00 5,2 -0,8 0 0 N 20 60
20.09.2018 12:00:00 4,2 -11,0 0 0 N 50 60
20.09.2018 11:00:00 4,0 -10,1 0 0 N 50 60
20.09.2018 10:00:00 2,6 -3,9 0 0 N 50 54
20.09.2018 09:00:00 1,4 -3,7 9 5 ENE 50 -
20.09.2018 08:00:00 1,2 -4,2 9 5 ENE 50 -
20.09.2018 07:00:00 1,4 -4,9 18 10 ENE 50 -
20.09.2018 06:00:00 1,4 -4,3 9 5 ENE 10 -
20.09.2018 05:00:00 1,6 -4,9 9 5 NE 10 -
20.09.2018 04:00:00 2,0 -0,3 4 2 - 10 -
20.09.2018 03:00:00 1,8 -0,3 0 0 N 10 -
20.09.2018 02:00:00 1,8 0,0 5 3 NE 10 -
20.09.2018 01:00:00 1,8 -2,3 5 3 NE 10 -
20.09.2018 00:00:00 2,0 -2,3 9 5 NE 10 -
19.09.2018 23:00:00 2,0 -2,3 5 3 - 10 -
19.09.2018 22:00:00 2,2 -2,3 11 6 NNE 10 -
19.09.2018 21:00:00 2,4 -1,0 15 8 NNE 10 -
19.09.2018 20:00:00 2,6 -2,1 9 5 ENE 50 12
19.09.2018 19:00:00 2,8 -2,1 9 5 ENE 50 6
19.09.2018 18:00:00 3,2 -3,8 4 2 - 30 0
19.09.2018 17:00:00 3,6 -5,9 4 2 - 30 0
19.09.2018 16:00:00 5,6 -4,0 4 2 - 30 12
19.09.2018 15:00:00 6,0 -3,6 4 2 - 50 60
19.09.2018 14:00:00 4,2 -4,5 0 0 N 10 42
19.09.2018 13:00:00 4,4 -7,7 4 2 - 10 60
19.09.2018 12:00:00 4,2 -6,4 4 2 - 30 60
19.09.2018 11:00:00 3,0 -9,3 5 3 ESE 80 60
19.09.2018 10:00:00 1,6 -8,8 9 5 NNE 80 54
19.09.2018 09:00:00 1,6 -7,2 15 8 NNE 80 0
19.09.2018 08:00:00 1,2 -10,9 18 10 NE 80 0
19.09.2018 07:00:00 1,0 -7,0 18 10 NE 30 -
19.09.2018 06:00:00 1,2 -6,4 18 10 NE 10 -
19.09.2018 05:00:00 1,2 -5,5 13 7 ENE 10 -
19.09.2018 04:00:00 1,4 -7,6 9 5 SSW 10 -
19.09.2018 03:00:00 1,2 -1,7 11 6 SSW 10 -
19.09.2018 02:00:00 1,2 -1,7 11 6 SW 10 -
19.09.2018 01:00:00 2,0 -0,9 4 2 - 10 -
19.09.2018 00:00:00 2,0 -1,1 4 2 - 0,8 -
18.09.2018 23:00:00 2,4 -0,9 9 5 ENE 0,1 -
18.09.2018 22:00:00 2,4 -1,9 4 2 - 0,3 -
18.09.2018 21:00:00 2,8 -0,8 5 3 SSW 0,1 -
18.09.2018 20:00:00 3,4 -1,2 5 3 SSW 1,0 6
18.09.2018 19:00:00 4,2 -2,6 5 3 S 3,0 0
18.09.2018 18:00:00 5,2 -0,6 0 0 N 2,0 0
18.09.2018 17:00:00 5,2 0,0 5 3 SSW 0,5 0
18.09.2018 16:00:00 4,8 0,0 0 0 N 0,5 0
18.09.2018 15:00:00 5,0 -0,4 5 3 S 0,6 0
18.09.2018 14:00:00 5,0 -2,6 5 3 S 0,8 0
18.09.2018 13:00:00 5,2 -1,7 0 0 N 0,8 0
18.09.2018 12:00:00 5,2 -0,4 4 2 - 0,8 30
18.09.2018 11:00:00 4,4 -0,4 4 2 - 0,1 60
18.09.2018 10:00:00 3,8 -1,8 5 3 SSW 10 60
18.09.2018 09:00:00 2,8 -3,5 5 3 SSW 50 0
18.09.2018 08:00:00 2,0 -2,0 0 0 N 50 -
18.09.2018 07:00:00 2,0 -2,0 0 0 N 30 -
18.09.2018 06:00:00 2,0 -2,9 9 5 SSW 10 -
18.09.2018 05:00:00 2,0 -3,1 15 8 SSW 10 -
18.09.2018 04:00:00 1,8 -2,0 0 0 N 10 -
18.09.2018 03:00:00 1,6 -1,6 5 3 S 0,8 -
18.09.2018 02:00:00 1,8 1,5 5 3 - 0,1 -
18.09.2018 01:00:00 1,8 1,8 5 3 SSW 0,1 -
18.09.2018 00:00:00 1,6 1,3 5 3 S 0,1 -
17.09.2018 23:00:00 2,4 -0,7 9 5 S 0,8 -
17.09.2018 22:00:00 3,2 0,2 5 3 SSW 0,8 -
17.09.2018 21:00:00 3,6 0,0 9 5 S 0,8 -
17.09.2018 20:00:00 3,8 0,8 0 0 N 0,8 0
17.09.2018 19:00:00 4,6 0,6 0 0 N 0,8 0
17.09.2018 18:00:00 4,8 0,7 0 0 N 0,5 0
17.09.2018 17:00:00 5,0 0,4 0 0 N 0,5 0
17.09.2018 16:00:00 5,4 0,2 4 2 - 0,5 0
17.09.2018 15:00:00 6,0 -0,7 5 3 S 0,5 0
17.09.2018 14:00:00 5,2 0,0 9 5 SSW 0,8 0
17.09.2018 13:00:00 5,0 0,9 9 5 S 0,3 0
17.09.2018 12:00:00 5,4 -0,9 9 5 S 1,0 60
17.09.2018 11:00:00 4,4 -4,6 5 3 SSW 8 60
17.09.2018 10:00:00 3,6 -3,4 5 3 S 10 60
17.09.2018 09:00:00 2,6 -3,1 4 2 - 50 0
17.09.2018 08:00:00 1,6 -4,3 18 10 S 50 -
17.09.2018 07:00:00 1,6 -2,5 4 2 - 20 -
17.09.2018 06:00:00 1,8 -0,9 4 2 - 10 -
17.09.2018 05:00:00 1,4 0,2 28 15 SSW 10 -
17.09.2018 04:00:00 1,8 -0,8 22 12 SSW 10 -
17.09.2018 03:00:00 2,0 -2,3 18 10 SSW 10 -
17.09.2018 02:00:00 2,0 -1,8 5 3 N 10 -
17.09.2018 01:00:00 2,0 -1,4 18 10 SSW 10 -
17.09.2018 00:00:00 2,0 -2,3 4 2 N 10 -
16.09.2018 23:00:00 2,0 -3,7 4 2 N 10 -
16.09.2018 22:00:00 2,2 -3,3 15 8 ENE 10 -
16.09.2018 21:00:00 2,6 -1,0 18 10 SSW 10 -
16.09.2018 20:00:00 3,0 -1,6 9 5 SSW 1,5 0
16.09.2018 19:00:00 3,4 -1,5 9 5 S 4,0 0
16.09.2018 18:00:00 3,6 0,1 18 10 SSW 0,8 0
16.09.2018 17:00:00 3,8 0,5 18 10 SW 0,4 0
16.09.2018 16:00:00 3,6 2,1 9 5 S 0,1 0
16.09.2018 15:00:00 3,8 0,7 18 10 S 0,3 0
16.09.2018 14:00:00 3,8 1,4 18 10 S 0,3 0
16.09.2018 13:00:00 2,8 -1,2 9 5 S 0,2 0
16.09.2018 12:00:00 2,8 1,2 18 10 S 0,2 0
16.09.2018 11:00:00 3,4 1,9 18 10 S 0,1 0
16.09.2018 10:00:00 3,2 2,8 18 10 S 0,1 0
16.09.2018 09:00:00 2,0 1,6 18 10 S 0,1 0
16.09.2018 08:00:00 2,2 1,9 28 15 S 0,1 0
16.09.2018 07:00:00 2,2 1,8 28 15 S 0,1 -
16.09.2018 06:00:00 2,6 2,5 28 15 S 0,3 -
16.09.2018 05:00:00 2,8 2,2 28 15 S 0,8 -
16.09.2018 04:00:00 2,2 0,7 28 15 S 10 -
16.09.2018 03:00:00 2,4 -0,5 28 15 S 10 -
16.09.2018 02:00:00 2,0 -1,3 46 25 S 10 -
16.09.2018 01:00:00 2,0 -1,1 28 15 S 10 -
16.09.2018 00:00:00 2,4 -0,5 28 15 S 10 -
15.09.2018 23:00:00 2,4 -0,7 18 10 S 10 -
15.09.2018 22:00:00 3,0 0,1 9 5 S 10 -
15.09.2018 21:00:00 3,4 -0,6 18 10 S 8 -
15.09.2018 20:00:00 3,6 -0,6 15 8 SSW 0,8 0
15.09.2018 19:00:00 4,6 1,1 4 2 N 0,8 0
15.09.2018 18:00:00 4,8 1,3 15 8 SSW 0,5 0
15.09.2018 17:00:00 5,4 1,0 18 10 SSW 0,8 0
15.09.2018 16:00:00 5,0 1,5 9 5 SSW 0,2 0
15.09.2018 15:00:00 5,2 0,8 0 0 N 0,2 30
15.09.2018 14:00:00 5,4 1,0 5 3 N 0,5 54
15.09.2018 13:00:00 4,8 0,6 18 10 S 4,0 60
15.09.2018 12:00:00 4,0 -1,0 18 10 S 8 60
15.09.2018 11:00:00 4,0 -1,8 9 5 S 8 60
15.09.2018 10:00:00 3,4 -3,6 18 10 SSW 8 60
15.09.2018 09:00:00 2,6 -26,0 0 0 N 50 0
15.09.2018 08:00:00 1,0 -27,3 9 5 S 50 -
15.09.2018 07:00:00 0,6 -23,1 9 5 S 30 -
15.09.2018 06:00:00 0,2 -2,5 34 18 S 10 -
15.09.2018 05:00:00 0,4 -2,5 37 20 S 10 -
15.09.2018 04:00:00 0,6 -3,3 37 20 S 10 -
15.09.2018 03:00:00 0,8 -3,9 28 15 S 10 -
15.09.2018 02:00:00 1,0 -3,5 22 12 S 10 -
15.09.2018 01:00:00 1,2 -3,7 18 10 S 10 -

tt = temperature
td = dewpoint
ff = wind speed
dd = wind direction
vv = visibility
sd = sunshine duration

Next stations